Battle Point — NMBY — position and weather

sailwx.info

Track history (hours):
 
Tides and Currents Weather Stations Pressure Air Temp Water Temp Dewpoint Dewpoint Depression Visibility Wind Speed Wind Dir Waves Ship Positions

Battle Point

Last reported at 2017-Jan-14 20:13 UTC. Time now 2017-Jan-21 08:47 UTC.
Position N 49°12' W 123°44'.

Length 57 m; draft 3.2 m.

MMSI: 369970254.

Date/timePositionNaut miles runAvg speedWind from/ knotsBaromVisibWave heightAir tempDewpointWater temp
2017-Jan-14 20:13N 49°12' W 123°44'7 9.5
2017-Jan-14 19:31N 49°08' W 123°36'10 9.9
2017-Jan-14 18:33N 49°02' W 123°25'7 7.5
2017-Jan-14 17:33N 49°08' W 123°33'2310.1
2017-Jan-14 15:15N 49°16' W 124°06'  
2017-Jan-11 05:17N 49°16' W 124°06'710.1
2017-Jan-11 04:33N 49°14' W 123°55'1110.1
2017-Jan-11 03:28N 49°11' W 123°39'910.3
2017-Jan-11 02:33N 49°06' W 123°26'10 9.8
2017-Jan-11 01:33N 49°01' W 123°14'10 9.3
2017-Jan-11 00:30N 48°54' W 123°04'12 9.3
2017-Jan-10 23:10N 48°46' W 122°48'5 8.8
2017-Jan-10 22:33N 48°42' W 122°44'9 9.1
2017-Jan-10 21:33N 48°33' W 122°45'1010.1
2017-Jan-10 20:31N 48°22' W 122°45'16 8.1
2017-Jan-10 18:33N 48°07' W 122°39'1110.4
2017-Jan-10 17:31N 47°56' W 122°38'9 9.0
2017-Jan-10 16:33N 47°48' W 122°42'4 4.3
2017-Jan-10 15:33N 47°44' W 122°44'0 0.0
2017-Jan-10 14:33N 47°44' W 122°44'0 0.0
2017-Jan-09 15:04N 47°44' W 122°44'  
Track history (hours):
 
Tides and Currents Weather Stations Pressure Air Temp Water Temp Dewpoint Dewpoint Depression Visibility Wind Speed Wind Dir Waves Ship Positions

Battle Point

Last reported at 2017-Jan-14 20:13 UTC. Time now 2017-Jan-21 08:47 UTC.
Position N 49°12' W 123°44'.

Length 57 m; draft 3.2 m.

MMSI: 369970254.

Date/timePositionNaut miles runAvg speedWind from/ knotsBaromVisibWave heightAir tempDewpointWater temp
2017-Jan-14 20:13N 49°12' W 123°44'7 9.5
2017-Jan-14 19:31N 49°08' W 123°36'10 9.9
2017-Jan-14 18:33N 49°02' W 123°25'7 7.5
2017-Jan-14 17:33N 49°08' W 123°33'2310.1
2017-Jan-14 15:15N 49°16' W 124°06'  
2017-Jan-11 05:17N 49°16' W 124°06'710.1
2017-Jan-11 04:33N 49°14' W 123°55'1110.1
2017-Jan-11 03:28N 49°11' W 123°39'910.3
2017-Jan-11 02:33N 49°06' W 123°26'10 9.8
2017-Jan-11 01:33N 49°01' W 123°14'10 9.3
2017-Jan-11 00:30N 48°54' W 123°04'12 9.3
2017-Jan-10 23:10N 48°46' W 122°48'5 8.8
2017-Jan-10 22:33N 48°42' W 122°44'9 9.1
2017-Jan-10 21:33N 48°33' W 122°45'1010.1
2017-Jan-10 20:31N 48°22' W 122°45'16 8.1
2017-Jan-10 18:33N 48°07' W 122°39'1110.4
2017-Jan-10 17:31N 47°56' W 122°38'9 9.0
2017-Jan-10 16:33N 47°48' W 122°42'4 4.3
2017-Jan-10 15:33N 47°44' W 122°44'0 0.0
2017-Jan-10 14:33N 47°44' W 122°44'0 0.0
2017-Jan-09 15:04N 47°44' W 122°44'  

Dump ship's entire track history